sensor_id;sensor_type;location;lat;lon;timestamp;temperature;humidity
13203;DHT22;6666;51.626;7.530;2023-04-07T00:00:55;7.70;99.90
13203;DHT22;6666;51.626;7.530;2023-04-07T00:03:25;7.60;99.90
13203;DHT22;6666;51.626;7.530;2023-04-07T00:05:54;7.50;99.90
13203;DHT22;6666;51.626;7.530;2023-04-07T00:08:22;7.50;99.90
13203;DHT22;6666;51.626;7.530;2023-04-07T00:10:50;7.60;99.90
13203;DHT22;6666;51.626;7.530;2023-04-07T00:13:19;7.60;99.90
13203;DHT22;6666;51.626;7.530;2023-04-07T00:15:47;7.60;99.90
13203;DHT22;6666;51.626;7.530;2023-04-07T00:18:15;7.60;99.90
13203;DHT22;6666;51.626;7.530;2023-04-07T00:20:45;7.60;99.90
13203;DHT22;6666;51.626;7.530;2023-04-07T00:23:13;7.60;99.90
13203;DHT22;6666;51.626;7.530;2023-04-07T00:25:41;7.50;99.90
13203;DHT22;6666;51.626;7.530;2023-04-07T00:28:09;7.60;99.90
13203;DHT22;6666;51.626;7.530;2023-04-07T00:30:38;7.60;99.90
13203;DHT22;6666;51.626;7.530;2023-04-07T00:33:06;7.60;99.90
13203;DHT22;6666;51.626;7.530;2023-04-07T00:35:35;7.60;99.90
13203;DHT22;6666;51.626;7.530;2023-04-07T00:38:05;7.60;99.90
13203;DHT22;6666;51.626;7.530;2023-04-07T00:40:34;7.60;99.90
13203;DHT22;6666;51.626;7.530;2023-04-07T00:43:02;7.70;99.90
13203;DHT22;6666;51.626;7.530;2023-04-07T00:45:30;7.60;99.90
13203;DHT22;6666;51.626;7.530;2023-04-07T00:47:59;7.70;99.90
13203;DHT22;6666;51.626;7.530;2023-04-07T00:50:27;7.70;99.90
13203;DHT22;6666;51.626;7.530;2023-04-07T00:52:55;7.60;99.90
13203;DHT22;6666;51.626;7.530;2023-04-07T00:55:25;7.60;99.90
13203;DHT22;6666;51.626;7.530;2023-04-07T00:57:53;7.60;99.90
13203;DHT22;6666;51.626;7.530;2023-04-07T01:00:24;7.60;99.90
13203;DHT22;6666;51.626;7.530;2023-04-07T01:02:57;7.70;99.90
13203;DHT22;6666;51.626;7.530;2023-04-07T01:05:40;7.70;99.90
13203;DHT22;6666;51.626;7.530;2023-04-07T01:08:14;7.70;99.90
13203;DHT22;6666;51.626;7.530;2023-04-07T01:10:50;7.70;99.90
13203;DHT22;6666;51.626;7.530;2023-04-07T01:13:24;7.70;99.90
13203;DHT22;6666;51.626;7.530;2023-04-07T01:16:04;7.60;99.90
13203;DHT22;6666;51.626;7.530;2023-04-07T01:18:43;7.70;99.90
13203;DHT22;6666;51.626;7.530;2023-04-07T01:21:14;7.70;99.90
13203;DHT22;6666;51.626;7.530;2023-04-07T01:23:53;7.70;99.90
13203;DHT22;6666;51.626;7.530;2023-04-07T01:26:31;7.70;99.90
13203;DHT22;6666;51.626;7.530;2023-04-07T01:29:27;7.70;99.90
13203;DHT22;6666;51.626;7.530;2023-04-07T01:31:59;7.70;99.90
13203;DHT22;6666;51.626;7.530;2023-04-07T01:34:31;7.70;99.90
13203;DHT22;6666;51.626;7.530;2023-04-07T01:37:01;7.70;99.90
13203;DHT22;6666;51.626;7.530;2023-04-07T01:39:30;7.70;99.90
13203;DHT22;6666;51.626;7.530;2023-04-07T01:42:00;7.70;99.90
13203;DHT22;6666;51.626;7.530;2023-04-07T01:44:32;7.70;99.90
13203;DHT22;6666;51.626;7.530;2023-04-07T01:47:01;7.70;99.90
13203;DHT22;6666;51.626;7.530;2023-04-07T01:49:30;7.70;99.90
13203;DHT22;6666;51.626;7.530;2023-04-07T01:51:59;7.70;99.90
13203;DHT22;6666;51.626;7.530;2023-04-07T01:54:28;7.60;99.90
13203;DHT22;6666;51.626;7.530;2023-04-07T01:56:57;7.70;99.90
13203;DHT22;6666;51.626;7.530;2023-04-07T01:59:26;7.70;99.90
13203;DHT22;6666;51.626;7.530;2023-04-07T02:01:57;7.70;99.90
13203;DHT22;6666;51.626;7.530;2023-04-07T02:04:30;7.70;99.90
13203;DHT22;6666;51.626;7.530;2023-04-07T02:07:02;7.70;99.90
13203;DHT22;6666;51.626;7.530;2023-04-07T02:09:39;7.60;99.90
13203;DHT22;6666;51.626;7.530;2023-04-07T02:12:11;7.60;99.90
13203;DHT22;6666;51.626;7.530;2023-04-07T02:14:51;7.70;99.90
13203;DHT22;6666;51.626;7.530;2023-04-07T02:17:22;7.70;99.90
13203;DHT22;6666;51.626;7.530;2023-04-07T02:19:53;7.60;99.90
13203;DHT22;6666;51.626;7.530;2023-04-07T02:22:23;7.60;99.90
13203;DHT22;6666;51.626;7.530;2023-04-07T02:24:51;7.60;99.90
13203;DHT22;6666;51.626;7.530;2023-04-07T02:27:39;7.60;99.90
13203;DHT22;6666;51.626;7.530;2023-04-07T02:30:08;7.60;99.90
13203;DHT22;6666;51.626;7.530;2023-04-07T02:32:38;7.60;99.90
13203;DHT22;6666;51.626;7.530;2023-04-07T02:35:07;7.60;99.90
13203;DHT22;6666;51.626;7.530;2023-04-07T02:37:36;7.70;99.90
13203;DHT22;6666;51.626;7.530;2023-04-07T02:40:05;7.60;99.90
13203;DHT22;6666;51.626;7.530;2023-04-07T02:42:34;7.70;99.90
13203;DHT22;6666;51.626;7.530;2023-04-07T02:45:02;7.70;99.90
13203;DHT22;6666;51.626;7.530;2023-04-07T02:47:31;7.70;99.90
13203;DHT22;6666;51.626;7.530;2023-04-07T02:50:01;7.60;99.90
13203;DHT22;6666;51.626;7.530;2023-04-07T02:52:33;7.60;99.90
13203;DHT22;6666;51.626;7.530;2023-04-07T02:55:09;7.60;99.90
13203;DHT22;6666;51.626;7.530;2023-04-07T02:57:38;7.60;99.90
13203;DHT22;6666;51.626;7.530;2023-04-07T03:00:14;7.60;99.90
13203;DHT22;6666;51.626;7.530;2023-04-07T03:02:55;7.50;99.90
13203;DHT22;6666;51.626;7.530;2023-04-07T03:05:27;7.60;99.90
13203;DHT22;6666;51.626;7.530;2023-04-07T03:07:55;7.60;99.90
13203;DHT22;6666;51.626;7.530;2023-04-07T03:10:24;7.60;99.90
13203;DHT22;6666;51.626;7.530;2023-04-07T03:12:52;7.60;99.90
13203;DHT22;6666;51.626;7.530;2023-04-07T03:15:21;7.60;99.90
13203;DHT22;6666;51.626;7.530;2023-04-07T03:17:50;7.50;99.90
13203;DHT22;6666;51.626;7.530;2023-04-07T03:20:19;7.60;99.90
13203;DHT22;6666;51.626;7.530;2023-04-07T03:22:49;7.60;99.90
13203;DHT22;6666;51.626;7.530;2023-04-07T03:25:24;7.60;99.90
13203;DHT22;6666;51.626;7.530;2023-04-07T03:27:54;7.60;99.90
13203;DHT22;6666;51.626;7.530;2023-04-07T03:30:25;7.60;99.90
13203;DHT22;6666;51.626;7.530;2023-04-07T03:32:54;7.60;99.90
13203;DHT22;6666;51.626;7.530;2023-04-07T03:35:22;7.70;99.90
13203;DHT22;6666;51.626;7.530;2023-04-07T03:37:52;7.70;99.90
13203;DHT22;6666;51.626;7.530;2023-04-07T03:40:20;7.60;99.90
13203;DHT22;6666;51.626;7.530;2023-04-07T03:42:49;7.60;99.90
13203;DHT22;6666;51.626;7.530;2023-04-07T03:45:17;7.60;99.90
13203;DHT22;6666;51.626;7.530;2023-04-07T03:47:48;7.60;99.90
13203;DHT22;6666;51.626;7.530;2023-04-07T03:50:17;7.60;99.90
13203;DHT22;6666;51.626;7.530;2023-04-07T03:52:55;7.60;99.90
13203;DHT22;6666;51.626;7.530;2023-04-07T03:55:25;7.60;99.90
13203;DHT22;6666;51.626;7.530;2023-04-07T03:57:59;7.50;99.90
13203;DHT22;6666;51.626;7.530;2023-04-07T04:00:31;7.40;99.90
13203;DHT22;6666;51.626;7.530;2023-04-07T04:03:05;7.40;99.90
13203;DHT22;6666;51.626;7.530;2023-04-07T04:05:38;7.40;99.90
13203;DHT22;6666;51.626;7.530;2023-04-07T04:08:12;7.40;99.90
13203;DHT22;6666;51.626;7.530;2023-04-07T04:10:41;7.40;99.90
13203;DHT22;6666;51.626;7.530;2023-04-07T04:13:09;7.40;99.90
13203;DHT22;6666;51.626;7.530;2023-04-07T04:15:39;7.50;99.90
13203;DHT22;6666;51.626;7.530;2023-04-07T04:18:12;7.60;99.90
13203;DHT22;6666;51.626;7.530;2023-04-07T04:20:41;7.60;99.90
13203;DHT22;6666;51.626;7.530;2023-04-07T04:23:10;7.50;99.90
13203;DHT22;6666;51.626;7.530;2023-04-07T04:25:40;7.50;99.90
13203;DHT22;6666;51.626;7.530;2023-04-07T04:28:10;7.40;99.90
13203;DHT22;6666;51.626;7.530;2023-04-07T04:30:40;7.50;99.90
13203;DHT22;6666;51.626;7.530;2023-04-07T04:33:09;7.50;99.90
13203;DHT22;6666;51.626;7.530;2023-04-07T04:35:47;7.50;99.90
13203;DHT22;6666;51.626;7.530;2023-04-07T04:38:18;7.50;99.90
13203;DHT22;6666;51.626;7.530;2023-04-07T04:41:01;7.40;99.90
13203;DHT22;6666;51.626;7.530;2023-04-07T04:43:30;7.40;99.90
13203;DHT22;6666;51.626;7.530;2023-04-07T04:46:00;7.50;99.90
13203;DHT22;6666;51.626;7.530;2023-04-07T04:48:33;7.60;99.90
13203;DHT22;6666;51.626;7.530;2023-04-07T04:51:04;7.50;99.90
13203;DHT22;6666;51.626;7.530;2023-04-07T04:53:33;7.50;99.90
13203;DHT22;6666;51.626;7.530;2023-04-07T04:56:04;7.60;99.90
13203;DHT22;6666;51.626;7.530;2023-04-07T04:58:39;7.60;99.90
13203;DHT22;6666;51.626;7.530;2023-04-07T05:01:17;7.50;99.90
13203;DHT22;6666;51.626;7.530;2023-04-07T05:04:00;7.50;99.90
13203;DHT22;6666;51.626;7.530;2023-04-07T05:06:29;7.50;99.90
13203;DHT22;6666;51.626;7.530;2023-04-07T05:09:03;7.50;99.90
13203;DHT22;6666;51.626;7.530;2023-04-07T05:11:41;7.50;99.90
13203;DHT22;6666;51.626;7.530;2023-04-07T05:14:11;7.50;99.90
13203;DHT22;6666;51.626;7.530;2023-04-07T05:16:45;7.60;99.90
13203;DHT22;6666;51.626;7.530;2023-04-07T05:19:20;7.60;99.90
13203;DHT22;6666;51.626;7.530;2023-04-07T05:21:53;7.60;99.90
13203;DHT22;6666;51.626;7.530;2023-04-07T05:24:25;7.60;99.90
13203;DHT22;6666;51.626;7.530;2023-04-07T05:26:58;7.60;99.90
13203;DHT22;6666;51.626;7.530;2023-04-07T05:29:29;7.50;99.90
13203;DHT22;6666;51.626;7.530;2023-04-07T05:31:58;7.60;99.90
13203;DHT22;6666;51.626;7.530;2023-04-07T05:34:29;7.60;99.90
13203;DHT22;6666;51.626;7.530;2023-04-07T05:36:58;7.60;99.90
13203;DHT22;6666;51.626;7.530;2023-04-07T05:39:27;7.60;99.90
13203;DHT22;6666;51.626;7.530;2023-04-07T05:41:57;7.60;99.90
13203;DHT22;6666;51.626;7.530;2023-04-07T05:44:27;7.60;99.90
13203;DHT22;6666;51.626;7.530;2023-04-07T05:46:56;7.60;99.90
13203;DHT22;6666;51.626;7.530;2023-04-07T05:49:26;7.60;99.90
13203;DHT22;6666;51.626;7.530;2023-04-07T05:52:01;7.60;99.90
13203;DHT22;6666;51.626;7.530;2023-04-07T05:54:35;7.50;99.90
13203;DHT22;6666;51.626;7.530;2023-04-07T05:57:07;7.60;99.90
13203;DHT22;6666;51.626;7.530;2023-04-07T05:59:41;7.70;99.90
13203;DHT22;6666;51.626;7.530;2023-04-07T06:02:10;7.70;99.90
13203;DHT22;6666;51.626;7.530;2023-04-07T06:04:39;7.70;99.90
13203;DHT22;6666;51.626;7.530;2023-04-07T06:07:12;7.70;99.90
13203;DHT22;6666;51.626;7.530;2023-04-07T06:09:42;7.70;99.90
13203;DHT22;6666;51.626;7.530;2023-04-07T06:12:11;7.60;99.90
13203;DHT22;6666;51.626;7.530;2023-04-07T06:14:41;7.70;99.90
13203;DHT22;6666;51.626;7.530;2023-04-07T06:17:09;7.60;99.90
13203;DHT22;6666;51.626;7.530;2023-04-07T06:19:38;7.60;99.90
13203;DHT22;6666;51.626;7.530;2023-04-07T06:22:06;7.60;99.90
13203;DHT22;6666;51.626;7.530;2023-04-07T06:24:34;7.60;99.90
13203;DHT22;6666;51.626;7.530;2023-04-07T06:27:03;7.70;99.90
13203;DHT22;6666;51.626;7.530;2023-04-07T06:29:34;7.70;99.90
13203;DHT22;6666;51.626;7.530;2023-04-07T06:32:05;7.70;99.90
13203;DHT22;6666;51.626;7.530;2023-04-07T06:34:35;7.70;99.90
13203;DHT22;6666;51.626;7.530;2023-04-07T06:37:03;7.80;99.90
13203;DHT22;6666;51.626;7.530;2023-04-07T06:39:32;7.80;99.90
13203;DHT22;6666;51.626;7.530;2023-04-07T06:42:00;7.90;99.90
13203;DHT22;6666;51.626;7.530;2023-04-07T06:44:36;7.90;99.90
13203;DHT22;6666;51.626;7.530;2023-04-07T06:47:04;8.00;99.90
13203;DHT22;6666;51.626;7.530;2023-04-07T06:49:33;8.00;99.90
13203;DHT22;6666;51.626;7.530;2023-04-07T06:52:04;8.00;99.90
13203;DHT22;6666;51.626;7.530;2023-04-07T06:54:32;8.00;99.90
13203;DHT22;6666;51.626;7.530;2023-04-07T06:57:00;7.90;99.90
13203;DHT22;6666;51.626;7.530;2023-04-07T06:59:28;8.00;99.90
13203;DHT22;6666;51.626;7.530;2023-04-07T07:01:58;7.90;99.90
13203;DHT22;6666;51.626;7.530;2023-04-07T07:04:27;8.00;99.90
13203;DHT22;6666;51.626;7.530;2023-04-07T07:06:55;8.00;99.90
13203;DHT22;6666;51.626;7.530;2023-04-07T07:09:23;8.00;99.90
13203;DHT22;6666;51.626;7.530;2023-04-07T07:11:52;8.00;99.90
13203;DHT22;6666;51.626;7.530;2023-04-07T07:14:20;7.90;99.90
13203;DHT22;6666;51.626;7.530;2023-04-07T07:16:48;7.90;99.90
13203;DHT22;6666;51.626;7.530;2023-04-07T07:19:18;7.90;99.90
13203;DHT22;6666;51.626;7.530;2023-04-07T07:21:46;7.90;99.90
13203;DHT22;6666;51.626;7.530;2023-04-07T07:24:14;8.00;99.90
13203;DHT22;6666;51.626;7.530;2023-04-07T07:26:43;8.10;99.90
13203;DHT22;6666;51.626;7.530;2023-04-07T07:29:11;8.10;99.90
13203;DHT22;6666;51.626;7.530;2023-04-07T07:31:40;8.10;99.90
13203;DHT22;6666;51.626;7.530;2023-04-07T07:34:08;8.10;99.90
13203;DHT22;6666;51.626;7.530;2023-04-07T07:36:38;8.20;99.90
13203;DHT22;6666;51.626;7.530;2023-04-07T07:39:06;8.20;99.90
13203;DHT22;6666;51.626;7.530;2023-04-07T07:41:34;8.30;99.90
13203;DHT22;6666;51.626;7.530;2023-04-07T07:44:02;8.30;99.90
13203;DHT22;6666;51.626;7.530;2023-04-07T07:46:31;8.30;99.90
13203;DHT22;6666;51.626;7.530;2023-04-07T07:48:59;8.40;99.90
13203;DHT22;6666;51.626;7.530;2023-04-07T07:51:28;8.40;99.90
13203;DHT22;6666;51.626;7.530;2023-04-07T07:53:58;8.40;99.90
13203;DHT22;6666;51.626;7.530;2023-04-07T07:56:26;8.30;99.90
13203;DHT22;6666;51.626;7.530;2023-04-07T07:58:54;8.40;99.90
13203;DHT22;6666;51.626;7.530;2023-04-07T08:01:24;8.40;99.90
13203;DHT22;6666;51.626;7.530;2023-04-07T08:03:52;8.40;99.90
13203;DHT22;6666;51.626;7.530;2023-04-07T08:06:21;8.40;99.90
13203;DHT22;6666;51.626;7.530;2023-04-07T08:08:49;8.50;99.90
13203;DHT22;6666;51.626;7.530;2023-04-07T08:11:19;8.60;99.90
13203;DHT22;6666;51.626;7.530;2023-04-07T08:13:47;8.50;99.90
13203;DHT22;6666;51.626;7.530;2023-04-07T08:16:16;8.50;99.90
13203;DHT22;6666;51.626;7.530;2023-04-07T08:18:45;8.50;99.90
13203;DHT22;6666;51.626;7.530;2023-04-07T08:21:14;8.60;99.90
13203;DHT22;6666;51.626;7.530;2023-04-07T08:23:42;8.60;99.90
13203;DHT22;6666;51.626;7.530;2023-04-07T08:26:10;8.60;99.90
13203;DHT22;6666;51.626;7.530;2023-04-07T08:28:40;8.70;99.90
13203;DHT22;6666;51.626;7.530;2023-04-07T08:31:08;8.70;99.90
13203;DHT22;6666;51.626;7.530;2023-04-07T08:33:37;8.70;99.90
13203;DHT22;6666;51.626;7.530;2023-04-07T08:36:05;8.70;99.90
13203;DHT22;6666;51.626;7.530;2023-04-07T08:38:34;8.80;99.90
13203;DHT22;6666;51.626;7.530;2023-04-07T08:41:03;8.80;99.90
13203;DHT22;6666;51.626;7.530;2023-04-07T08:43:34;8.80;99.90
13203;DHT22;6666;51.626;7.530;2023-04-07T08:46:05;8.70;99.90
13203;DHT22;6666;51.626;7.530;2023-04-07T08:48:37;8.70;99.90
13203;DHT22;6666;51.626;7.530;2023-04-07T08:51:06;8.60;99.90
13203;DHT22;6666;51.626;7.530;2023-04-07T08:53:40;8.60;99.90
13203;DHT22;6666;51.626;7.530;2023-04-07T08:56:11;8.60;99.90
13203;DHT22;6666;51.626;7.530;2023-04-07T08:58:40;8.70;99.90
13203;DHT22;6666;51.626;7.530;2023-04-07T09:01:11;8.70;99.90
13203;DHT22;6666;51.626;7.530;2023-04-07T09:03:41;8.70;99.90
13203;DHT22;6666;51.626;7.530;2023-04-07T09:06:11;8.80;99.90
13203;DHT22;6666;51.626;7.530;2023-04-07T09:08:39;8.90;99.90
13203;DHT22;6666;51.626;7.530;2023-04-07T09:11:07;8.90;99.90
13203;DHT22;6666;51.626;7.530;2023-04-07T09:13:36;8.80;99.90
13203;DHT22;6666;51.626;7.530;2023-04-07T09:16:04;9.00;99.90
13203;DHT22;6666;51.626;7.530;2023-04-07T09:18:34;8.90;99.90
13203;DHT22;6666;51.626;7.530;2023-04-07T09:21:03;8.90;99.90
13203;DHT22;6666;51.626;7.530;2023-04-07T09:23:35;9.00;99.90
13203;DHT22;6666;51.626;7.530;2023-04-07T09:26:19;9.00;99.90
13203;DHT22;6666;51.626;7.530;2023-04-07T09:28:50;9.10;99.90
13203;DHT22;6666;51.626;7.530;2023-04-07T09:31:19;9.10;99.90
13203;DHT22;6666;51.626;7.530;2023-04-07T09:33:50;9.10;99.90
13203;DHT22;6666;51.626;7.530;2023-04-07T09:36:18;9.10;99.90
13203;DHT22;6666;51.626;7.530;2023-04-07T09:38:46;8.90;99.90
13203;DHT22;6666;51.626;7.530;2023-04-07T09:41:15;9.00;99.90
13203;DHT22;6666;51.626;7.530;2023-04-07T09:43:45;8.80;99.90
13203;DHT22;6666;51.626;7.530;2023-04-07T09:46:15;8.80;99.90
13203;DHT22;6666;51.626;7.530;2023-04-07T09:48:45;8.90;99.90
13203;DHT22;6666;51.626;7.530;2023-04-07T09:51:16;8.90;99.90
13203;DHT22;6666;51.626;7.530;2023-04-07T09:53:46;9.10;99.90
13203;DHT22;6666;51.626;7.530;2023-04-07T09:56:16;9.10;99.90
13203;DHT22;6666;51.626;7.530;2023-04-07T09:58:46;9.30;99.90
13203;DHT22;6666;51.626;7.530;2023-04-07T10:01:15;9.30;99.90
13203;DHT22;6666;51.626;7.530;2023-04-07T10:03:45;9.30;99.90
13203;DHT22;6666;51.626;7.530;2023-04-07T10:06:16;9.30;99.90
13203;DHT22;6666;51.626;7.530;2023-04-07T10:08:44;9.20;99.90
13203;DHT22;6666;51.626;7.530;2023-04-07T10:11:14;9.00;99.90
13203;DHT22;6666;51.626;7.530;2023-04-07T10:13:44;9.10;99.90
13203;DHT22;6666;51.626;7.530;2023-04-07T10:16:13;9.10;99.90
13203;DHT22;6666;51.626;7.530;2023-04-07T10:18:41;9.10;99.90
13203;DHT22;6666;51.626;7.530;2023-04-07T10:21:11;9.10;99.90
13203;DHT22;6666;51.626;7.530;2023-04-07T10:23:51;9.10;99.90
13203;DHT22;6666;51.626;7.530;2023-04-07T10:26:23;9.00;99.90
13203;DHT22;6666;51.626;7.530;2023-04-07T10:28:56;8.90;99.90
13203;DHT22;6666;51.626;7.530;2023-04-07T10:31:24;9.00;99.90
13203;DHT22;6666;51.626;7.530;2023-04-07T10:33:53;8.90;99.90
13203;DHT22;6666;51.626;7.530;2023-04-07T10:36:23;8.90;99.90
13203;DHT22;6666;51.626;7.530;2023-04-07T10:39:21;9.00;99.90
13203;DHT22;6666;51.626;7.530;2023-04-07T10:41:50;8.90;99.90
13203;DHT22;6666;51.626;7.530;2023-04-07T10:44:43;8.90;99.90
13203;DHT22;6666;51.626;7.530;2023-04-07T10:47:12;8.80;99.90
13203;DHT22;6666;51.626;7.530;2023-04-07T10:50:16;8.70;99.90
13203;DHT22;6666;51.626;7.530;2023-04-07T10:52:45;8.70;99.90
13203;DHT22;6666;51.626;7.530;2023-04-07T10:55:35;8.70;99.90
13203;DHT22;6666;51.626;7.530;2023-04-07T10:58:28;8.70;99.90
13203;DHT22;6666;51.626;7.530;2023-04-07T11:01:17;8.90;99.90
13203;DHT22;6666;51.626;7.530;2023-04-07T11:03:57;9.00;99.90
13203;DHT22;6666;51.626;7.530;2023-04-07T11:06:26;8.90;99.90
13203;DHT22;6666;51.626;7.530;2023-04-07T11:08:54;8.80;99.90
13203;DHT22;6666;51.626;7.530;2023-04-07T11:11:40;8.90;99.90
13203;DHT22;6666;51.626;7.530;2023-04-07T11:14:08;8.80;99.90
13203;DHT22;6666;51.626;7.530;2023-04-07T11:16:40;8.80;99.90
13203;DHT22;6666;51.626;7.530;2023-04-07T11:19:09;8.80;99.90
13203;DHT22;6666;51.626;7.530;2023-04-07T11:21:37;9.00;99.90
13203;DHT22;6666;51.626;7.530;2023-04-07T11:24:05;9.00;99.90
13203;DHT22;6666;51.626;7.530;2023-04-07T11:26:38;9.10;99.90
13203;DHT22;6666;51.626;7.530;2023-04-07T11:29:08;9.10;99.90
13203;DHT22;6666;51.626;7.530;2023-04-07T11:31:38;9.20;99.90
13203;DHT22;6666;51.626;7.530;2023-04-07T11:34:06;9.30;99.90
13203;DHT22;6666;51.626;7.530;2023-04-07T11:36:38;9.40;99.90
13203;DHT22;6666;51.626;7.530;2023-04-07T11:39:17;9.10;99.90
13203;DHT22;6666;51.626;7.530;2023-04-07T11:41:48;9.30;99.90
13203;DHT22;6666;51.626;7.530;2023-04-07T11:44:18;9.40;99.90
13203;DHT22;6666;51.626;7.530;2023-04-07T11:46:54;9.30;99.90
13203;DHT22;6666;51.626;7.530;2023-04-07T11:49:23;9.30;99.90
13203;DHT22;6666;51.626;7.530;2023-04-07T11:51:57;9.20;99.90
13203;DHT22;6666;51.626;7.530;2023-04-07T11:54:26;9.10;99.90
13203;DHT22;6666;51.626;7.530;2023-04-07T11:56:55;9.10;99.90
13203;DHT22;6666;51.626;7.530;2023-04-07T11:59:25;9.30;99.90
13203;DHT22;6666;51.626;7.530;2023-04-07T12:01:54;9.20;99.90
13203;DHT22;6666;51.626;7.530;2023-04-07T12:04:24;9.10;99.90
13203;DHT22;6666;51.626;7.530;2023-04-07T12:06:52;8.90;99.90
13203;DHT22;6666;51.626;7.530;2023-04-07T12:09:28;9.00;99.90
13203;DHT22;6666;51.626;7.530;2023-04-07T12:11:58;8.80;99.90
13203;DHT22;6666;51.626;7.530;2023-04-07T12:14:28;8.80;99.90
13203;DHT22;6666;51.626;7.530;2023-04-07T12:16:56;8.80;99.90
13203;DHT22;6666;51.626;7.530;2023-04-07T12:19:26;9.00;99.90
13203;DHT22;6666;51.626;7.530;2023-04-07T12:21:55;9.10;99.90
13203;DHT22;6666;51.626;7.530;2023-04-07T12:24:23;9.10;99.90
13203;DHT22;6666;51.626;7.530;2023-04-07T12:26:51;9.20;99.90
13203;DHT22;6666;51.626;7.530;2023-04-07T12:29:20;9.20;99.90
13203;DHT22;6666;51.626;7.530;2023-04-07T12:31:50;9.30;99.90
13203;DHT22;6666;51.626;7.530;2023-04-07T12:34:18;9.30;99.90
13203;DHT22;6666;51.626;7.530;2023-04-07T12:36:46;9.10;99.90
13203;DHT22;6666;51.626;7.530;2023-04-07T12:39:15;9.30;99.90
13203;DHT22;6666;51.626;7.530;2023-04-07T12:41:43;9.20;99.90
13203;DHT22;6666;51.626;7.530;2023-04-07T12:44:13;9.20;99.90
13203;DHT22;6666;51.626;7.530;2023-04-07T12:46:42;9.10;99.90
13203;DHT22;6666;51.626;7.530;2023-04-07T12:49:11;9.10;99.90
13203;DHT22;6666;51.626;7.530;2023-04-07T12:51:39;9.10;99.90
13203;DHT22;6666;51.626;7.530;2023-04-07T12:54:08;9.20;99.90
13203;DHT22;6666;51.626;7.530;2023-04-07T12:56:36;9.10;99.90
13203;DHT22;6666;51.626;7.530;2023-04-07T12:59:06;9.20;99.90
13203;DHT22;6666;51.626;7.530;2023-04-07T13:01:35;9.20;99.90
13203;DHT22;6666;51.626;7.530;2023-04-07T13:04:04;9.10;99.90
13203;DHT22;6666;51.626;7.530;2023-04-07T13:06:34;9.00;99.90
13203;DHT22;6666;51.626;7.530;2023-04-07T13:09:02;9.00;99.90
13203;DHT22;6666;51.626;7.530;2023-04-07T13:11:30;9.10;99.90
13203;DHT22;6666;51.626;7.530;2023-04-07T13:13:59;9.10;99.90
13203;DHT22;6666;51.626;7.530;2023-04-07T13:16:28;9.10;99.90
13203;DHT22;6666;51.626;7.530;2023-04-07T13:18:56;9.10;99.90
13203;DHT22;6666;51.626;7.530;2023-04-07T13:21:25;9.20;99.90
13203;DHT22;6666;51.626;7.530;2023-04-07T13:24:14;9.10;99.90
13203;DHT22;6666;51.626;7.530;2023-04-07T13:26:42;9.20;99.90
13203;DHT22;6666;51.626;7.530;2023-04-07T13:29:10;9.10;99.90
13203;DHT22;6666;51.626;7.530;2023-04-07T13:31:39;9.20;99.90
13203;DHT22;6666;51.626;7.530;2023-04-07T13:34:07;9.40;99.90
13203;DHT22;6666;51.626;7.530;2023-04-07T13:36:35;9.50;99.90
13203;DHT22;6666;51.626;7.530;2023-04-07T13:39:03;9.40;99.90
13203;DHT22;6666;51.626;7.530;2023-04-07T13:41:34;9.60;99.90
13203;DHT22;6666;51.626;7.530;2023-04-07T13:44:02;9.50;99.90
13203;DHT22;6666;51.626;7.530;2023-04-07T13:46:30;9.40;99.90
13203;DHT22;6666;51.626;7.530;2023-04-07T13:48:59;9.40;99.90
13203;DHT22;6666;51.626;7.530;2023-04-07T13:51:27;9.50;99.90
13203;DHT22;6666;51.626;7.530;2023-04-07T13:53:56;9.50;99.90
13203;DHT22;6666;51.626;7.530;2023-04-07T13:56:25;9.40;99.90
13203;DHT22;6666;51.626;7.530;2023-04-07T13:58:54;9.60;99.90
13203;DHT22;6666;51.626;7.530;2023-04-07T14:01:23;9.60;99.90
13203;DHT22;6666;51.626;7.530;2023-04-07T14:03:51;9.50;99.90
13203;DHT22;6666;51.626;7.530;2023-04-07T14:06:20;9.30;99.90
13203;DHT22;6666;51.626;7.530;2023-04-07T14:08:49;9.30;99.90
13203;DHT22;6666;51.626;7.530;2023-04-07T14:11:17;9.30;99.90
13203;DHT22;6666;51.626;7.530;2023-04-07T14:13:46;9.40;99.90
13203;DHT22;6666;51.626;7.530;2023-04-07T14:16:16;9.40;99.90
13203;DHT22;6666;51.626;7.530;2023-04-07T14:18:45;9.40;99.90
13203;DHT22;6666;51.626;7.530;2023-04-07T14:21:15;9.40;99.90
13203;DHT22;6666;51.626;7.530;2023-04-07T14:23:43;9.40;99.90
13203;DHT22;6666;51.626;7.530;2023-04-07T14:26:12;9.40;99.90
13203;DHT22;6666;51.626;7.530;2023-04-07T14:28:40;9.50;99.90
13203;DHT22;6666;51.626;7.530;2023-04-07T14:31:11;9.50;99.90
13203;DHT22;6666;51.626;7.530;2023-04-07T14:33:42;9.40;99.90
13203;DHT22;6666;51.626;7.530;2023-04-07T14:36:13;9.40;99.90
13203;DHT22;6666;51.626;7.530;2023-04-07T14:38:42;9.50;99.90
13203;DHT22;6666;51.626;7.530;2023-04-07T14:41:10;9.60;99.90
13203;DHT22;6666;51.626;7.530;2023-04-07T14:43:39;9.60;99.90
13203;DHT22;6666;51.626;7.530;2023-04-07T14:46:08;9.50;99.90
13203;DHT22;6666;51.626;7.530;2023-04-07T14:48:38;9.60;99.90
13203;DHT22;6666;51.626;7.530;2023-04-07T14:51:11;9.60;99.90
13203;DHT22;6666;51.626;7.530;2023-04-07T14:53:40;9.60;99.90
13203;DHT22;6666;51.626;7.530;2023-04-07T14:56:09;9.60;99.90
13203;DHT22;6666;51.626;7.530;2023-04-07T14:58:38;9.50;99.90
13203;DHT22;6666;51.626;7.530;2023-04-07T15:01:06;9.50;99.90
13203;DHT22;6666;51.626;7.530;2023-04-07T15:03:35;9.60;99.90
13203;DHT22;6666;51.626;7.530;2023-04-07T15:06:07;9.70;99.90
13203;DHT22;6666;51.626;7.530;2023-04-07T15:08:37;9.80;99.90
13203;DHT22;6666;51.626;7.530;2023-04-07T15:11:06;9.80;99.90
13203;DHT22;6666;51.626;7.530;2023-04-07T15:13:35;9.90;99.90
13203;DHT22;6666;51.626;7.530;2023-04-07T15:16:08;9.80;99.90
13203;DHT22;6666;51.626;7.530;2023-04-07T15:18:38;9.70;99.90
13203;DHT22;6666;51.626;7.530;2023-04-07T15:21:07;9.60;99.90
13203;DHT22;6666;51.626;7.530;2023-04-07T15:23:38;9.60;99.90
13203;DHT22;6666;51.626;7.530;2023-04-07T15:26:08;9.60;99.90
13203;DHT22;6666;51.626;7.530;2023-04-07T15:28:37;9.70;99.90
13203;DHT22;6666;51.626;7.530;2023-04-07T15:31:06;9.80;99.90
13203;DHT22;6666;51.626;7.530;2023-04-07T15:33:36;9.70;99.90
13203;DHT22;6666;51.626;7.530;2023-04-07T15:36:05;9.80;99.90
13203;DHT22;6666;51.626;7.530;2023-04-07T15:38:33;9.80;99.90
13203;DHT22;6666;51.626;7.530;2023-04-07T15:41:03;9.70;99.90
13203;DHT22;6666;51.626;7.530;2023-04-07T15:43:32;9.80;99.90
13203;DHT22;6666;51.626;7.530;2023-04-07T15:46:01;9.80;99.90
13203;DHT22;6666;51.626;7.530;2023-04-07T15:48:29;9.80;99.90
13203;DHT22;6666;51.626;7.530;2023-04-07T15:50:57;9.70;99.90
13203;DHT22;6666;51.626;7.530;2023-04-07T15:53:26;9.80;99.90
13203;DHT22;6666;51.626;7.530;2023-04-07T15:55:54;9.80;99.90
13203;DHT22;6666;51.626;7.530;2023-04-07T15:58:24;9.80;99.90
13203;DHT22;6666;51.626;7.530;2023-04-07T16:00:52;9.80;99.90
13203;DHT22;6666;51.626;7.530;2023-04-07T16:03:20;9.80;99.90
13203;DHT22;6666;51.626;7.530;2023-04-07T16:05:49;9.90;99.90
13203;DHT22;6666;51.626;7.530;2023-04-07T16:08:18;10.00;99.90
13203;DHT22;6666;51.626;7.530;2023-04-07T16:10:46;9.90;99.90
13203;DHT22;6666;51.626;7.530;2023-04-07T16:13:14;10.00;99.90
13203;DHT22;6666;51.626;7.530;2023-04-07T16:15:44;10.00;99.90
13203;DHT22;6666;51.626;7.530;2023-04-07T16:18:12;10.00;99.90
13203;DHT22;6666;51.626;7.530;2023-04-07T16:20:40;10.00;99.90
13203;DHT22;6666;51.626;7.530;2023-04-07T16:23:09;10.00;99.90